createdAt,value
2018-01-03T00:01:49.585Z,2.33
2018-01-03T00:04:17.087Z,2.72
2018-01-03T00:06:45.366Z,2.40
2018-01-03T00:09:13.635Z,2.20
2018-01-03T00:11:41.925Z,1.90
2018-01-03T00:14:10.168Z,2.28
2018-01-03T00:16:37.640Z,2.20
2018-01-03T00:19:05.867Z,2.05
2018-01-03T00:24:29.464Z,2.92
2018-01-03T00:26:56.971Z,2.05
2018-01-03T00:29:25.242Z,1.67
2018-01-03T00:31:53.505Z,2.28
2018-01-03T00:34:20.964Z,1.58
2018-01-03T00:36:48.505Z,1.75
2018-01-03T00:39:16.009Z,1.83
2018-01-03T00:41:44.384Z,1.50
2018-01-03T00:44:12.608Z,1.50
2018-01-03T00:46:40.109Z,1.70
2018-01-03T00:49:08.339Z,1.42
2018-01-03T00:51:35.809Z,1.10
2018-01-03T00:54:03.273Z,1.62
2018-01-03T00:56:30.747Z,1.27
2018-01-03T00:58:58.982Z,1.20
2018-01-03T01:01:26.431Z,1.20
2018-01-03T01:03:53.918Z,1.40
2018-01-03T01:06:21.396Z,1.20
2018-01-03T01:08:49.623Z,1.20
2018-01-03T01:11:17.094Z,1.12
2018-01-03T01:13:44.552Z,1.30
2018-01-03T01:16:12.014Z,1.42
2018-01-03T01:18:39.484Z,1.10
2018-01-03T01:21:06.943Z,1.10
2018-01-03T01:23:34.406Z,1.23
2018-01-03T01:26:02.663Z,1.23
2018-01-03T01:28:30.123Z,1.20
2018-01-03T01:30:57.595Z,1.33
2018-01-03T01:33:25.072Z,1.20
2018-01-03T01:38:56.573Z,1.00
2018-01-03T01:41:24.098Z,0.90
2018-01-03T01:43:52.384Z,1.30
2018-01-03T01:46:20.693Z,1.05
2018-01-03T01:49:00.138Z,0.90
2018-01-03T01:51:27.621Z,1.20
2018-01-03T01:53:55.130Z,0.90
2018-01-03T01:56:22.643Z,1.30
2018-01-03T01:58:50.192Z,1.27
2018-01-03T02:01:17.732Z,1.00
2018-01-03T02:03:45.244Z,1.23
2018-01-03T02:06:13.506Z,1.10
2018-01-03T02:08:41.026Z,1.12
2018-01-03T02:11:08.547Z,1.02
2018-01-03T02:13:36.859Z,1.00
2018-01-03T02:16:04.392Z,0.95
2018-01-03T02:18:32.665Z,1.20
2018-01-03T02:21:00.928Z,1.00
2018-01-03T02:23:29.201Z,1.25
2018-01-03T02:25:56.698Z,1.20
2018-01-03T02:28:24.216Z,1.00
2018-01-03T02:30:51.698Z,1.00
2018-01-03T02:33:19.207Z,0.90
2018-01-03T02:35:46.719Z,1.20
2018-01-03T02:38:26.782Z,1.08
2018-01-03T02:40:54.345Z,1.20
2018-01-03T02:43:21.916Z,1.37
2018-01-03T02:45:49.476Z,0.90
2018-01-03T02:48:16.990Z,1.10
2018-01-03T02:50:44.499Z,1.00
2018-01-03T02:53:12.011Z,1.00
2018-01-03T02:55:39.516Z,1.00
2018-01-03T02:58:07.050Z,1.00
2018-01-03T03:00:35.321Z,1.02
2018-01-03T03:03:03.610Z,1.25
2018-01-03T03:05:31.164Z,1.20
2018-01-03T03:07:59.435Z,1.10
2018-01-03T03:10:27.710Z,1.15
2018-01-03T03:12:55.990Z,1.23
2018-01-03T03:15:24.238Z,0.80
2018-01-03T03:17:51.737Z,0.90
2018-01-03T03:20:19.225Z,0.90
2018-01-03T03:22:46.725Z,1.10
2018-01-03T03:25:14.229Z,0.85
2018-01-03T03:27:41.703Z,0.98
2018-01-03T03:30:09.222Z,0.88
2018-01-03T03:32:37.495Z,1.20
2018-01-03T03:35:05.765Z,0.90
2018-01-03T03:37:33.295Z,1.02
2018-01-03T03:40:00.790Z,1.10
2018-01-03T03:42:29.070Z,1.02
2018-01-03T03:44:57.367Z,0.93
2018-01-03T03:47:24.850Z,1.10
2018-01-03T03:49:52.400Z,1.20
2018-01-03T03:52:19.926Z,1.17
2018-01-03T03:54:48.222Z,0.95
2018-01-03T03:57:15.730Z,1.08
2018-01-03T03:59:43.251Z,0.90
2018-01-03T04:02:10.786Z,1.05
2018-01-03T04:04:38.322Z,0.95
2018-01-03T04:07:05.843Z,0.88
2018-01-03T04:09:33.353Z,0.95
2018-01-03T04:12:01.615Z,1.17
2018-01-03T04:14:29.118Z,0.80
2018-01-03T04:16:56.626Z,0.90
2018-01-03T04:19:24.122Z,0.93
2018-01-03T04:21:52.416Z,1.02
2018-01-03T04:24:19.967Z,0.98
2018-01-03T04:26:47.565Z,0.90
2018-01-03T04:29:15.071Z,1.10
2018-01-03T04:31:43.369Z,0.80
2018-01-03T04:34:10.898Z,0.90
2018-01-03T04:36:38.383Z,0.70
2018-01-03T04:39:05.968Z,0.80
2018-01-03T04:41:33.474Z,0.93
2018-01-03T04:44:01.019Z,1.10
2018-01-03T04:46:28.571Z,0.80
2018-01-03T04:48:56.067Z,0.80
2018-01-03T04:51:24.345Z,1.02
2018-01-03T04:53:52.606Z,0.90
2018-01-03T04:56:20.128Z,0.90
2018-01-03T04:58:47.711Z,0.85
2018-01-03T05:01:15.195Z,1.20
2018-01-03T05:03:42.701Z,0.90
2018-01-03T05:06:10.215Z,0.95
2018-01-03T05:08:38.462Z,0.70
2018-01-03T05:11:05.978Z,0.70
2018-01-03T05:13:33.459Z,0.80
2018-01-03T05:16:01.694Z,0.73
2018-01-03T05:18:29.195Z,1.10
2018-01-03T05:20:57.472Z,1.00
2018-01-03T05:23:24.982Z,0.85
2018-01-03T05:25:52.575Z,0.82
2018-01-03T05:28:20.070Z,0.60
2018-01-03T05:30:47.610Z,0.80
2018-01-03T05:33:15.159Z,0.90
2018-01-03T05:35:42.707Z,0.80
2018-01-03T05:38:10.772Z,0.80
2018-01-03T05:40:38.299Z,0.77
2018-01-03T05:43:05.790Z,0.88
2018-01-03T05:45:33.266Z,0.90
2018-01-03T05:48:00.793Z,0.70
2018-01-03T05:50:28.321Z,0.80
2018-01-03T05:52:55.883Z,0.80
2018-01-03T05:55:23.402Z,1.10
2018-01-03T05:57:50.908Z,0.90
2018-01-03T06:00:18.390Z,0.80
2018-01-03T06:02:45.902Z,0.70
2018-01-03T06:05:14.174Z,0.70
2018-01-03T06:07:42.504Z,0.93
2018-01-03T06:10:10.019Z,0.80
2018-01-03T06:12:37.697Z,0.75
2018-01-03T06:15:05.218Z,0.80
2018-01-03T06:17:32.722Z,0.70
2018-01-03T06:20:00.218Z,0.70
2018-01-03T06:22:27.755Z,0.70
2018-01-03T06:24:55.991Z,0.88
2018-01-03T06:27:24.321Z,0.90
2018-01-03T06:29:51.839Z,0.82
2018-01-03T06:32:20.128Z,0.80
2018-01-03T06:34:47.625Z,0.80
2018-01-03T06:37:15.138Z,0.80
2018-01-03T06:39:42.646Z,0.80
2018-01-03T06:42:10.169Z,0.90
2018-01-03T06:44:37.691Z,0.90
2018-01-03T06:47:05.945Z,1.00
2018-01-03T06:49:33.462Z,0.90
2018-01-03T06:52:00.962Z,0.88
2018-01-03T06:54:28.482Z,1.08
2018-01-03T06:56:56.008Z,1.90
2018-01-03T06:59:24.286Z,0.88
2018-01-03T07:01:52.533Z,2.40
2018-01-03T07:04:20.884Z,0.90
2018-01-03T07:06:48.410Z,0.88
2018-01-03T07:09:16.710Z,0.80
2018-01-03T07:11:44.236Z,0.80
2018-01-03T07:14:11.792Z,0.80
2018-01-03T07:16:39.282Z,0.80
2018-01-03T07:19:06.817Z,1.00
2018-01-03T07:21:35.089Z,0.90
2018-01-03T07:24:02.596Z,0.85
2018-01-03T07:26:30.086Z,1.00
2018-01-03T07:28:57.575Z,0.93
2018-01-03T07:31:25.059Z,1.02
2018-01-03T07:33:52.563Z,1.80
2018-01-03T07:36:20.095Z,0.90
2018-01-03T07:38:47.603Z,0.90
2018-01-03T07:41:15.136Z,1.15
2018-01-03T07:43:42.646Z,1.00
2018-01-03T07:46:10.986Z,1.00
2018-01-03T07:48:38.468Z,0.90
2018-01-03T07:51:05.935Z,0.90
2018-01-03T07:53:34.179Z,0.75
2018-01-03T07:56:01.703Z,1.10
2018-01-03T07:58:29.236Z,1.40
2018-01-03T08:00:57.526Z,1.00
2018-01-03T08:03:25.109Z,0.88
2018-01-03T08:05:52.578Z,1.08
2018-01-03T08:08:20.055Z,0.85
2018-01-03T08:10:47.565Z,0.80
2018-01-03T08:13:15.092Z,1.10
2018-01-03T08:15:42.648Z,0.90
2018-01-03T08:18:10.588Z,0.95
2018-01-03T08:20:38.107Z,0.90
2018-01-03T08:23:05.644Z,1.00
2018-01-03T08:25:33.916Z,0.80
2018-01-03T08:28:01.407Z,0.80
2018-01-03T08:30:28.919Z,0.80
2018-01-03T08:32:56.447Z,0.90
2018-01-03T08:35:23.986Z,0.85
2018-01-03T08:40:54.171Z,0.80
2018-01-03T08:43:21.696Z,1.10
2018-01-03T08:45:49.979Z,0.70
2018-01-03T08:48:17.495Z,0.98
2018-01-03T08:50:44.998Z,0.80
2018-01-03T08:53:13.271Z,0.88
2018-01-03T08:55:41.607Z,0.80
2018-01-03T08:58:09.088Z,0.80
2018-01-03T09:00:36.619Z,0.70
2018-01-03T09:03:04.155Z,0.70
2018-01-03T09:05:31.632Z,0.82
2018-01-03T09:07:59.125Z,1.25
2018-01-03T09:10:26.675Z,0.80
2018-01-03T09:12:54.184Z,0.70
2018-01-03T09:15:21.712Z,0.80
2018-01-03T09:17:49.230Z,0.80
2018-01-03T09:20:16.726Z,0.70
2018-01-03T09:22:44.231Z,1.10
2018-01-03T09:25:11.708Z,0.90
2018-01-03T09:27:39.222Z,0.80
2018-01-03T09:30:07.464Z,0.85
2018-01-03T09:32:34.954Z,0.80
2018-01-03T09:35:03.223Z,1.60
2018-01-03T09:37:31.559Z,1.08
2018-01-03T09:39:59.072Z,0.90
2018-01-03T09:42:27.368Z,0.93
2018-01-03T09:44:54.845Z,0.80
2018-01-03T09:47:22.335Z,0.90
2018-01-03T09:49:49.837Z,1.10
2018-01-03T09:52:18.101Z,1.05
2018-01-03T09:54:46.396Z,0.80
2018-01-03T09:57:13.902Z,0.80
2018-01-03T09:59:41.424Z,0.80
2018-01-03T10:02:08.958Z,0.75
2018-01-03T10:04:37.266Z,0.70
2018-01-03T10:07:04.813Z,1.00
2018-01-03T10:09:32.368Z,1.00
2018-01-03T10:11:59.907Z,0.93
2018-01-03T10:14:27.423Z,1.00
2018-01-03T10:16:54.966Z,0.80
2018-01-03T10:19:22.486Z,0.95
2018-01-03T10:21:50.370Z,1.00
2018-01-03T10:24:18.630Z,1.00
2018-01-03T10:26:46.138Z,1.00
2018-01-03T10:29:13.695Z,1.23
2018-01-03T10:31:41.219Z,1.00
2018-01-03T10:34:08.729Z,1.00
2018-01-03T10:36:36.266Z,1.10
2018-01-03T10:39:03.783Z,0.98
2018-01-03T10:41:31.313Z,1.20
2018-01-03T10:43:58.867Z,0.80
2018-01-03T10:46:26.382Z,0.90
2018-01-03T10:48:53.915Z,0.80
2018-01-03T10:51:21.454Z,0.95
2018-01-03T10:53:49.006Z,0.90
2018-01-03T10:56:16.537Z,1.10
2018-01-03T10:58:44.057Z,1.00
2018-01-03T11:01:11.577Z,0.88
2018-01-03T11:03:39.094Z,1.10
2018-01-03T11:06:07.369Z,0.90
2018-01-03T11:08:34.899Z,0.80
2018-01-03T11:11:02.417Z,1.35
2018-01-03T11:13:29.947Z,0.80
2018-01-03T11:15:58.234Z,1.00
2018-01-03T11:18:26.532Z,0.80
2018-01-03T11:20:54.046Z,1.05
2018-01-03T11:23:21.574Z,1.27
2018-01-03T11:25:49.082Z,1.23
2018-01-03T11:28:16.627Z,1.25
2018-01-03T11:30:44.182Z,1.10
2018-01-03T11:33:11.686Z,1.35
2018-01-03T11:35:39.223Z,0.90
2018-01-03T11:38:07.538Z,0.90
2018-01-03T11:40:35.082Z,1.00
2018-01-03T11:43:02.610Z,1.08
2018-01-03T11:45:30.110Z,1.10
2018-01-03T11:47:57.604Z,1.20
2018-01-03T11:50:25.133Z,1.00
2018-01-03T11:52:52.629Z,1.00
2018-01-03T11:55:20.178Z,1.50
2018-01-03T11:57:47.697Z,0.90
2018-01-03T12:00:16.001Z,1.00
2018-01-03T12:02:43.503Z,1.00
2018-01-03T12:05:11.030Z,0.90
2018-01-03T12:07:39.302Z,0.90
2018-01-03T12:10:06.823Z,1.00
2018-01-03T12:12:35.093Z,0.73
2018-01-03T12:15:03.351Z,0.80
2018-01-03T12:17:30.898Z,0.70
2018-01-03T12:19:58.387Z,1.00
2018-01-03T12:22:26.710Z,0.82
2018-01-03T12:24:54.190Z,0.90
2018-01-03T12:27:21.706Z,0.80
2018-01-03T12:29:49.999Z,0.80
2018-01-03T12:32:17.483Z,0.80
2018-01-03T12:34:45.011Z,0.90
2018-01-03T12:37:12.525Z,0.80
2018-01-03T12:39:40.034Z,0.80
2018-01-03T12:42:07.553Z,1.00
2018-01-03T12:44:35.868Z,0.88
2018-01-03T12:47:03.366Z,0.80
2018-01-03T12:49:30.882Z,1.00
2018-01-03T12:51:58.382Z,0.90
2018-01-03T12:54:25.919Z,1.00
2018-01-03T12:56:53.436Z,0.98
2018-01-03T12:59:20.987Z,0.90
2018-01-03T13:01:49.279Z,0.80
2018-01-03T13:04:17.550Z,1.00
2018-01-03T13:06:45.836Z,0.88
2018-01-03T13:09:14.147Z,0.90
2018-01-03T13:11:41.655Z,1.10
2018-01-03T13:14:09.176Z,0.90
2018-01-03T13:16:36.731Z,1.40
2018-01-03T13:19:04.223Z,1.25
2018-01-03T13:21:31.738Z,1.20
2018-01-03T13:23:59.265Z,1.40
2018-01-03T13:26:27.551Z,1.52
2018-01-03T13:28:55.864Z,1.25
2018-01-03T13:31:23.383Z,0.90
2018-01-03T13:33:51.689Z,1.20
2018-01-03T13:36:19.240Z,1.20
2018-01-03T13:38:46.737Z,1.10
2018-01-03T13:41:14.253Z,1.20
2018-01-03T13:43:41.829Z,1.00
2018-01-03T13:46:09.343Z,1.00
2018-01-03T13:48:36.846Z,1.00
2018-01-03T13:51:04.389Z,1.20
2018-01-03T13:53:31.930Z,0.90
2018-01-03T13:55:59.455Z,1.30
2018-01-03T13:58:26.990Z,1.10
2018-01-03T14:00:54.481Z,1.00
2018-01-03T14:03:22.028Z,0.80
2018-01-03T14:05:49.544Z,1.00
2018-01-03T14:08:17.081Z,1.10
2018-01-03T14:10:44.669Z,1.30
2018-01-03T14:13:12.155Z,1.20
2018-01-03T14:15:39.697Z,1.20
2018-01-03T14:18:07.988Z,1.25
2018-01-03T14:20:35.499Z,1.17
2018-01-03T14:23:02.974Z,1.00
2018-01-03T14:25:30.470Z,1.10
2018-01-03T14:27:57.998Z,1.10
2018-01-03T14:30:26.326Z,1.20
2018-01-03T14:32:54.626Z,1.05
2018-01-03T14:35:22.144Z,1.40
2018-01-03T14:37:49.763Z,1.20
2018-01-03T14:40:17.250Z,1.20
2018-01-03T14:42:44.779Z,0.80
2018-01-03T14:45:12.318Z,1.10
2018-01-03T14:47:40.607Z,1.05
2018-01-03T14:50:08.154Z,1.10
2018-01-03T14:52:35.727Z,1.55
2018-01-03T14:55:04.026Z,1.40
2018-01-03T14:57:31.547Z,0.90
2018-01-03T14:59:59.100Z,1.20
2018-01-03T15:02:26.625Z,1.20
2018-01-03T15:04:54.132Z,1.10
2018-01-03T15:07:21.642Z,1.10
2018-01-03T15:09:49.173Z,1.42
2018-01-03T15:12:16.731Z,1.00
2018-01-03T15:14:45.525Z,1.10
2018-01-03T15:17:13.085Z,1.10
2018-01-03T15:19:40.656Z,1.30
2018-01-03T15:22:08.179Z,1.10
2018-01-03T15:24:35.682Z,1.10
2018-01-03T15:27:03.283Z,1.00
2018-01-03T15:29:31.196Z,1.20
2018-01-03T15:31:58.716Z,1.25
2018-01-03T15:34:26.237Z,1.00
2018-01-03T15:36:53.746Z,1.42
2018-01-03T15:39:21.354Z,1.40
2018-01-03T15:41:48.869Z,1.35
2018-01-03T15:44:16.406Z,1.37
2018-01-03T15:46:43.939Z,1.20
2018-01-03T15:49:11.456Z,1.02
2018-01-03T15:51:39.018Z,1.20
2018-01-03T15:54:06.510Z,1.23
2018-01-03T15:56:34.074Z,1.10
2018-01-03T15:59:01.639Z,1.00
2018-01-03T16:01:29.193Z,1.30
2018-01-03T16:03:56.730Z,1.10
2018-01-03T16:06:24.273Z,1.23
2018-01-03T16:08:51.797Z,1.52
2018-01-03T16:11:19.344Z,1.87
2018-01-03T16:13:46.860Z,1.40
2018-01-03T16:16:14.334Z,1.48
2018-01-03T16:18:41.882Z,1.30
2018-01-03T16:21:09.395Z,1.00
2018-01-03T16:23:36.938Z,1.37
2018-01-03T16:26:04.454Z,1.30
2018-01-03T16:28:31.958Z,1.33
2018-01-03T16:30:59.469Z,1.45
2018-01-03T16:33:26.987Z,1.27
2018-01-03T16:35:54.497Z,1.17
2018-01-03T16:38:22.106Z,1.25
2018-01-03T16:40:49.647Z,1.37
2018-01-03T16:43:17.191Z,1.70
2018-01-03T16:45:44.818Z,2.40
2018-01-03T16:48:12.355Z,1.20
2018-01-03T16:50:39.830Z,1.65
2018-01-03T16:53:07.406Z,1.52
2018-01-03T16:55:34.925Z,1.92
2018-01-03T16:58:02.426Z,1.70
2018-01-03T17:00:30.737Z,2.12
2018-01-03T17:02:58.328Z,1.55
2018-01-03T17:05:25.873Z,1.35
2018-01-03T17:07:53.434Z,1.75
2018-01-03T17:10:20.941Z,1.73
2018-01-03T17:12:48.458Z,1.77
2018-01-03T17:15:15.962Z,1.98
2018-01-03T17:17:44.245Z,1.55
2018-01-03T17:20:11.828Z,1.35
2018-01-03T17:22:39.438Z,1.73
2018-01-03T17:25:06.989Z,1.45
2018-01-03T17:27:34.521Z,2.03
2018-01-03T17:30:01.992Z,1.70
2018-01-03T17:32:29.634Z,1.10
2018-01-03T17:34:57.172Z,1.37
2018-01-03T17:37:24.727Z,1.70
2018-01-03T17:39:52.323Z,1.73
2018-01-03T17:42:19.894Z,1.60
2018-01-03T17:44:47.473Z,2.05
2018-01-03T17:47:15.075Z,1.25
2018-01-03T17:49:42.649Z,1.75
2018-01-03T17:52:10.176Z,1.83
2018-01-03T17:54:37.730Z,1.40
2018-01-03T17:57:05.291Z,1.55
2018-01-03T17:59:32.846Z,1.50
2018-01-03T18:02:00.342Z,1.45
2018-01-03T18:04:27.949Z,1.40
2018-01-03T18:06:55.538Z,2.33
2018-01-03T18:09:23.091Z,2.20
2018-01-03T18:11:50.721Z,2.10
2018-01-03T18:14:18.298Z,2.22
2018-01-03T18:16:45.812Z,1.87
2018-01-03T18:19:13.394Z,1.98
2018-01-03T18:21:40.923Z,2.83
2018-01-03T18:24:08.543Z,2.78
2018-01-03T18:26:36.098Z,2.35
2018-01-03T18:29:03.615Z,2.40
2018-01-03T18:31:31.091Z,2.47
2018-01-03T18:33:58.632Z,2.37
2018-01-03T18:36:27.601Z,2.65
2018-01-03T18:38:55.239Z,2.15
2018-01-03T18:41:22.797Z,2.40
2018-01-03T18:43:50.324Z,2.17
2018-01-03T18:46:17.981Z,2.30
2018-01-03T18:48:45.574Z,3.55
2018-01-03T18:51:13.155Z,2.40
2018-01-03T18:53:40.708Z,2.40
2018-01-03T18:56:28.802Z,2.80
2018-01-03T18:58:57.149Z,1.70
2018-01-03T19:01:24.702Z,2.20
2018-01-03T19:03:52.311Z,3.17
2018-01-03T19:06:20.667Z,2.00
2018-01-03T19:08:48.266Z,2.10
2018-01-03T19:11:15.799Z,2.80
2018-01-03T19:13:43.372Z,1.90
2018-01-03T19:16:11.695Z,2.00
2018-01-03T19:18:39.265Z,2.25
2018-01-03T19:21:06.841Z,2.08
2018-01-03T19:23:34.397Z,2.20
2018-01-03T19:26:02.018Z,2.08
2018-01-03T19:28:29.590Z,1.80
2018-01-03T19:30:57.137Z,1.90
2018-01-03T19:33:24.723Z,2.58
2018-01-03T19:35:52.319Z,2.05
2018-01-03T19:38:19.861Z,1.60
2018-01-03T19:40:48.226Z,2.28
2018-01-03T19:43:15.769Z,2.00
2018-01-03T19:45:43.289Z,1.62
2018-01-03T19:48:10.830Z,1.67
2018-01-03T19:50:38.447Z,2.58
2018-01-03T19:53:06.023Z,1.65
2018-01-03T19:55:34.379Z,1.80
2018-01-03T19:58:01.906Z,1.90
2018-01-03T20:00:29.487Z,2.28
2018-01-03T20:02:57.058Z,2.15
2018-01-03T20:05:24.688Z,2.97
2018-01-03T20:07:52.226Z,2.53
2018-01-03T20:10:19.806Z,2.00
2018-01-03T20:12:47.369Z,1.75
2018-01-03T20:15:14.962Z,2.00
2018-01-03T20:17:42.496Z,1.62
2018-01-03T20:20:10.106Z,1.95
2018-01-03T20:22:38.415Z,1.80
2018-01-03T20:25:05.974Z,1.75
2018-01-03T20:27:33.544Z,2.30
2018-01-03T20:30:01.111Z,1.60
2018-01-03T20:32:28.627Z,1.70
2018-01-03T20:34:56.980Z,2.40
2018-01-03T20:37:24.513Z,1.67
2018-01-03T20:39:52.057Z,1.65
2018-01-03T20:42:19.618Z,2.05
2018-01-03T20:44:47.231Z,2.05
2018-01-03T20:47:14.766Z,2.00
2018-01-03T20:49:42.336Z,1.83
2018-01-03T20:52:09.880Z,2.72
2018-01-03T20:54:37.404Z,2.10
2018-01-03T20:57:05.005Z,2.33
2018-01-03T20:59:32.566Z,2.40
2018-01-03T21:02:00.137Z,1.95
2018-01-03T21:04:27.638Z,2.30
2018-01-03T21:06:55.157Z,1.67
2018-01-03T21:09:22.719Z,2.20
2018-01-03T21:11:50.270Z,2.55
2018-01-03T21:14:17.807Z,1.90
2018-01-03T21:16:45.398Z,1.85
2018-01-03T21:19:12.936Z,2.35
2018-01-03T21:21:40.505Z,2.17
2018-01-03T21:24:08.040Z,2.10
2018-01-03T21:26:36.380Z,2.08
2018-01-03T21:29:17.087Z,2.87
2018-01-03T21:31:44.595Z,1.62
2018-01-03T21:34:12.134Z,2.17
2018-01-03T21:36:40.392Z,2.35
2018-01-03T21:39:07.906Z,1.60
2018-01-03T21:41:35.419Z,2.20
2018-01-03T21:44:03.718Z,1.60
2018-01-03T21:46:31.239Z,2.15
2018-01-03T21:48:58.736Z,2.50
2018-01-03T21:51:26.269Z,3.05
2018-01-03T21:53:54.542Z,1.70
2018-01-03T21:56:22.822Z,1.73
2018-01-03T21:58:51.079Z,1.67
2018-01-03T22:01:18.693Z,1.70
2018-01-03T22:03:46.185Z,1.70
2018-01-03T22:06:13.708Z,2.40
2018-01-03T22:08:41.210Z,1.98
2018-01-03T22:11:09.682Z,1.70
2018-01-03T22:13:37.192Z,2.10
2018-01-03T22:16:04.690Z,2.25
2018-01-03T22:18:32.194Z,1.62
2018-01-03T22:21:00.462Z,1.62
2018-01-03T22:23:28.786Z,2.60
2018-01-03T22:25:56.304Z,1.83
2018-01-03T22:28:23.830Z,2.50
2018-01-03T22:30:51.330Z,1.50
2018-01-03T22:33:19.610Z,1.90
2018-01-03T22:35:47.110Z,1.60
2018-01-03T22:38:14.627Z,2.30
2018-01-03T22:40:42.900Z,1.50
2018-01-03T22:43:11.198Z,1.30
2018-01-03T22:45:38.704Z,1.75
2018-01-03T22:48:06.226Z,1.92
2018-01-03T22:50:33.741Z,1.85
2018-01-03T22:53:02.025Z,1.50
2018-01-03T22:55:30.636Z,1.65
2018-01-03T22:57:58.151Z,1.92
2018-01-03T23:00:25.655Z,2.00
2018-01-03T23:02:53.171Z,1.60
2018-01-03T23:05:20.674Z,1.40
2018-01-03T23:07:48.177Z,1.87
2018-01-03T23:10:15.680Z,1.77
2018-01-03T23:12:43.302Z,1.70
2018-01-03T23:15:10.808Z,2.12
2018-01-03T23:17:38.338Z,2.20
2018-01-03T23:20:06.607Z,1.77
2018-01-03T23:22:34.898Z,1.90
2018-01-03T23:25:02.420Z,1.75
2018-01-03T23:27:29.959Z,2.10
2018-01-03T23:29:57.490Z,1.40
2018-01-03T23:32:25.020Z,2.00
2018-01-03T23:34:52.582Z,1.95
2018-01-03T23:37:20.120Z,1.67
2018-01-03T23:39:47.668Z,1.80
2018-01-03T23:42:15.262Z,2.72
2018-01-03T23:44:43.660Z,1.90
2018-01-03T23:47:11.246Z,1.70
2018-01-03T23:49:38.803Z,1.98
2018-01-03T23:52:06.312Z,1.70
2018-01-03T23:54:33.850Z,2.35
2018-01-03T23:57:01.389Z,1.75
2018-01-03T23:59:28.912Z,1.70
